sensor_id;sensor_type;location;lat;lon;timestamp;P1;durP1;ratioP1;P2;durP2;ratioP2
25721;SDS011;13578;53.450;15.496;2024-03-25T00:00:03;2.92;;;2.72;;
25721;SDS011;13578;53.450;15.496;2024-03-25T00:03:04;2.90;;;2.70;;
25721;SDS011;13578;53.450;15.496;2024-03-25T00:06:05;2.38;;;2.28;;
25721;SDS011;13578;53.450;15.496;2024-03-25T00:09:06;2.72;;;2.53;;
25721;SDS011;13578;53.450;15.496;2024-03-25T00:12:13;2.45;;;2.30;;
25721;SDS011;13578;53.450;15.496;2024-03-25T00:15:14;2.78;;;2.58;;
25721;SDS011;13578;53.450;15.496;2024-03-25T00:18:15;2.70;;;2.55;;
25721;SDS011;13578;53.450;15.496;2024-03-25T00:21:16;2.20;;;2.10;;
25721;SDS011;13578;53.450;15.496;2024-03-25T00:24:16;2.10;;;2.00;;
25721;SDS011;13578;53.450;15.496;2024-03-25T00:27:17;2.30;;;2.20;;
25721;SDS011;13578;53.450;15.496;2024-03-25T00:30:18;2.40;;;2.30;;
25721;SDS011;13578;53.450;15.496;2024-03-25T00:33:19;3.42;;;2.60;;
25721;SDS011;13578;53.450;15.496;2024-03-25T00:36:20;2.80;;;2.60;;
25721;SDS011;13578;53.450;15.496;2024-03-25T00:39:21;2.45;;;2.33;;
25721;SDS011;13578;53.450;15.496;2024-03-25T00:42:24;2.17;;;2.08;;
25721;SDS011;13578;53.450;15.496;2024-03-25T00:45:25;2.35;;;2.25;;
25721;SDS011;13578;53.450;15.496;2024-03-25T00:48:30;2.67;;;2.50;;
25721;SDS011;13578;53.450;15.496;2024-03-25T00:51:31;2.30;;;2.20;;
25721;SDS011;13578;53.450;15.496;2024-03-25T00:54:31;5.63;;;2.80;;
25721;SDS011;13578;53.450;15.496;2024-03-25T00:57:32;2.95;;;2.75;;
25721;SDS011;13578;53.450;15.496;2024-03-25T01:00:33;3.47;;;3.17;;
25721;SDS011;13578;53.450;15.496;2024-03-25T01:03:33;3.40;;;3.10;;
25721;SDS011;13578;53.450;15.496;2024-03-25T01:06:34;4.88;;;4.00;;
25721;SDS011;13578;53.450;15.496;2024-03-25T01:09:35;3.78;;;3.47;;
25721;SDS011;13578;53.450;15.496;2024-03-25T01:12:35;3.85;;;3.47;;
25721;SDS011;13578;53.450;15.496;2024-03-25T01:15:36;3.30;;;3.03;;
25721;SDS011;13578;53.450;15.496;2024-03-25T01:18:37;3.75;;;3.38;;
25721;SDS011;13578;53.450;15.496;2024-03-25T01:21:37;4.18;;;3.67;;
25721;SDS011;13578;53.450;15.496;2024-03-25T01:24:38;4.47;;;3.70;;
25721;SDS011;13578;53.450;15.496;2024-03-25T01:27:40;9.55;;;3.58;;
25721;SDS011;13578;53.450;15.496;2024-03-25T01:30:40;4.05;;;3.65;;
25721;SDS011;13578;53.450;15.496;2024-03-25T01:33:41;4.03;;;3.65;;
25721;SDS011;13578;53.450;15.496;2024-03-25T01:36:42;4.40;;;3.75;;
25721;SDS011;13578;53.450;15.496;2024-03-25T01:39:43;3.67;;;3.30;;
25721;SDS011;13578;53.450;15.496;2024-03-25T01:42:44;3.75;;;3.45;;
25721;SDS011;13578;53.450;15.496;2024-03-25T01:45:59;4.97;;;3.47;;
25721;SDS011;13578;53.450;15.496;2024-03-25T01:48:59;3.60;;;3.30;;
25721;SDS011;13578;53.450;15.496;2024-03-25T01:52:00;3.70;;;3.40;;
25721;SDS011;13578;53.450;15.496;2024-03-25T01:55:01;3.72;;;3.38;;
25721;SDS011;13578;53.450;15.496;2024-03-25T01:58:04;3.30;;;3.00;;
25721;SDS011;13578;53.450;15.496;2024-03-25T02:01:05;3.28;;;3.00;;
25721;SDS011;13578;53.450;15.496;2024-03-25T02:04:06;3.67;;;3.35;;
25721;SDS011;13578;53.450;15.496;2024-03-25T02:07:07;3.45;;;3.15;;
25721;SDS011;13578;53.450;15.496;2024-03-25T02:10:10;4.20;;;3.75;;
25721;SDS011;13578;53.450;15.496;2024-03-25T02:13:15;4.43;;;4.03;;
25721;SDS011;13578;53.450;15.496;2024-03-25T02:16:16;4.35;;;3.42;;
25721;SDS011;13578;53.450;15.496;2024-03-25T02:19:16;4.05;;;3.70;;
25721;SDS011;13578;53.450;15.496;2024-03-25T02:22:18;3.95;;;3.35;;
25721;SDS011;13578;53.450;15.496;2024-03-25T02:25:19;5.30;;;3.80;;
25721;SDS011;13578;53.450;15.496;2024-03-25T02:28:22;4.50;;;4.13;;
25721;SDS011;13578;53.450;15.496;2024-03-25T02:31:23;9.10;;;4.38;;
25721;SDS011;13578;53.450;15.496;2024-03-25T02:34:23;6.30;;;4.30;;
25721;SDS011;13578;53.450;15.496;2024-03-25T02:37:24;6.78;;;4.40;;
25721;SDS011;13578;53.450;15.496;2024-03-25T02:40:26;5.07;;;4.35;;
25721;SDS011;13578;53.450;15.496;2024-03-25T02:43:27;4.20;;;3.78;;
25721;SDS011;13578;53.450;15.496;2024-03-25T02:46:28;4.53;;;4.10;;
25721;SDS011;13578;53.450;15.496;2024-03-25T02:49:29;5.35;;;4.38;;
25721;SDS011;13578;53.450;15.496;2024-03-25T02:52:29;4.90;;;4.40;;
25721;SDS011;13578;53.450;15.496;2024-03-25T02:55:31;7.63;;;4.70;;
25721;SDS011;13578;53.450;15.496;2024-03-25T02:58:31;5.05;;;4.57;;
25721;SDS011;13578;53.450;15.496;2024-03-25T03:01:32;4.85;;;4.30;;
25721;SDS011;13578;53.450;15.496;2024-03-25T03:04:33;5.28;;;4.78;;
25721;SDS011;13578;53.450;15.496;2024-03-25T03:07:33;4.80;;;4.28;;
25721;SDS011;13578;53.450;15.496;2024-03-25T03:10:34;8.50;;;4.80;;
25721;SDS011;13578;53.450;15.496;2024-03-25T03:13:34;4.90;;;4.25;;
25721;SDS011;13578;53.450;15.496;2024-03-25T03:16:35;4.82;;;4.32;;
25721;SDS011;13578;53.450;15.496;2024-03-25T03:19:36;5.97;;;4.30;;
25721;SDS011;13578;53.450;15.496;2024-03-25T03:22:36;5.20;;;4.07;;
25721;SDS011;13578;53.450;15.496;2024-03-25T03:25:37;4.63;;;4.22;;
25721;SDS011;13578;53.450;15.496;2024-03-25T03:28:37;4.82;;;4.38;;
25721;SDS011;13578;53.450;15.496;2024-03-25T03:31:38;5.22;;;4.40;;
25721;SDS011;13578;53.450;15.496;2024-03-25T03:34:39;4.80;;;4.40;;
25721;SDS011;13578;53.450;15.496;2024-03-25T03:37:39;4.93;;;4.43;;
25721;SDS011;13578;53.450;15.496;2024-03-25T03:40:40;4.85;;;3.92;;
25721;SDS011;13578;53.450;15.496;2024-03-25T03:43:41;5.25;;;4.18;;
25721;SDS011;13578;53.450;15.496;2024-03-25T03:46:41;4.45;;;4.05;;
25721;SDS011;13578;53.450;15.496;2024-03-25T03:49:42;5.20;;;4.65;;
25721;SDS011;13578;53.450;15.496;2024-03-25T03:52:43;9.45;;;6.07;;
25721;SDS011;13578;53.450;15.496;2024-03-25T03:55:52;6.15;;;5.45;;
25721;SDS011;13578;53.450;15.496;2024-03-25T03:58:57;8.00;;;6.55;;
25721;SDS011;13578;53.450;15.496;2024-03-25T04:01:58;9.48;;;7.70;;
25721;SDS011;13578;53.450;15.496;2024-03-25T04:04:59;8.65;;;7.35;;
25721;SDS011;13578;53.450;15.496;2024-03-25T04:08:00;14.23;;;8.30;;
25721;SDS011;13578;53.450;15.496;2024-03-25T04:11:01;11.77;;;7.68;;
25721;SDS011;13578;53.450;15.496;2024-03-25T04:14:02;12.65;;;8.02;;
25721;SDS011;13578;53.450;15.496;2024-03-25T04:17:03;11.25;;;7.85;;
25721;SDS011;13578;53.450;15.496;2024-03-25T04:20:05;16.23;;;9.40;;
25721;SDS011;13578;53.450;15.496;2024-03-25T04:26:11;10.07;;;8.70;;
25721;SDS011;13578;53.450;15.496;2024-03-25T04:29:11;10.75;;;8.18;;
25721;SDS011;13578;53.450;15.496;2024-03-25T04:32:13;9.52;;;8.10;;
25721;SDS011;13578;53.450;15.496;2024-03-25T04:35:14;12.13;;;9.75;;
25721;SDS011;13578;53.450;15.496;2024-03-25T04:38:17;10.38;;;8.18;;
25721;SDS011;13578;53.450;15.496;2024-03-25T04:41:18;11.98;;;9.43;;
25721;SDS011;13578;53.450;15.496;2024-03-25T04:44:18;15.23;;;10.07;;
25721;SDS011;13578;53.450;15.496;2024-03-25T04:47:21;11.48;;;8.38;;
25721;SDS011;13578;53.450;15.496;2024-03-25T04:50:22;12.50;;;8.52;;
25721;SDS011;13578;53.450;15.496;2024-03-25T04:53:23;10.95;;;8.85;;
25721;SDS011;13578;53.450;15.496;2024-03-25T04:56:23;11.90;;;9.38;;
25721;SDS011;13578;53.450;15.496;2024-03-25T04:59:24;27.05;;;15.93;;
25721;SDS011;13578;53.450;15.496;2024-03-25T05:02:25;16.05;;;10.25;;
25721;SDS011;13578;53.450;15.496;2024-03-25T05:05:25;40.65;;;17.23;;
25721;SDS011;13578;53.450;15.496;2024-03-25T05:08:26;28.13;;;17.73;;
25721;SDS011;13578;53.450;15.496;2024-03-25T05:11:27;19.48;;;12.40;;
25721;SDS011;13578;53.450;15.496;2024-03-25T05:14:28;16.42;;;12.75;;
25721;SDS011;13578;53.450;15.496;2024-03-25T05:17:28;16.02;;;12.20;;
25721;SDS011;13578;53.450;15.496;2024-03-25T05:20:29;18.50;;;10.93;;
25721;SDS011;13578;53.450;15.496;2024-03-25T05:23:29;14.43;;;11.13;;
25721;SDS011;13578;53.450;15.496;2024-03-25T05:26:30;18.25;;;11.30;;
25721;SDS011;13578;53.450;15.496;2024-03-25T05:29:31;16.23;;;11.38;;
25721;SDS011;13578;53.450;15.496;2024-03-25T05:32:31;18.33;;;11.20;;
25721;SDS011;13578;53.450;15.496;2024-03-25T05:35:32;13.95;;;10.85;;
25721;SDS011;13578;53.450;15.496;2024-03-25T05:38:36;16.90;;;11.23;;
25721;SDS011;13578;53.450;15.496;2024-03-25T05:41:37;14.75;;;10.98;;
25721;SDS011;13578;53.450;15.496;2024-03-25T05:44:37;17.15;;;12.82;;
25721;SDS011;13578;53.450;15.496;2024-03-25T05:47:38;19.17;;;12.77;;
25721;SDS011;13578;53.450;15.496;2024-03-25T05:50:38;21.67;;;13.32;;
25721;SDS011;13578;53.450;15.496;2024-03-25T05:53:39;24.05;;;13.75;;
25721;SDS011;13578;53.450;15.496;2024-03-25T05:56:40;20.00;;;13.13;;
25721;SDS011;13578;53.450;15.496;2024-03-25T05:59:40;25.77;;;13.07;;
25721;SDS011;13578;53.450;15.496;2024-03-25T06:02:41;29.65;;;15.00;;
25721;SDS011;13578;53.450;15.496;2024-03-25T06:05:42;34.42;;;18.27;;
25721;SDS011;13578;53.450;15.496;2024-03-25T06:08:43;33.30;;;17.65;;
25721;SDS011;13578;53.450;15.496;2024-03-25T06:11:44;33.33;;;17.83;;
25721;SDS011;13578;53.450;15.496;2024-03-25T06:14:44;39.35;;;18.30;;
25721;SDS011;13578;53.450;15.496;2024-03-25T06:17:45;35.25;;;17.70;;
25721;SDS011;13578;53.450;15.496;2024-03-25T06:20:46;47.53;;;19.55;;
25721;SDS011;13578;53.450;15.496;2024-03-25T06:23:46;42.13;;;19.05;;
25721;SDS011;13578;53.450;15.496;2024-03-25T06:26:47;40.70;;;19.42;;
25721;SDS011;13578;53.450;15.496;2024-03-25T06:29:48;67.25;;;23.42;;
25721;SDS011;13578;53.450;15.496;2024-03-25T06:32:49;50.28;;;21.90;;
25721;SDS011;13578;53.450;15.496;2024-03-25T06:36:08;64.47;;;21.67;;
25721;SDS011;13578;53.450;15.496;2024-03-25T06:39:09;64.93;;;22.75;;
25721;SDS011;13578;53.450;15.496;2024-03-25T06:42:09;70.95;;;24.08;;
25721;SDS011;13578;53.450;15.496;2024-03-25T06:45:10;64.70;;;24.08;;
25721;SDS011;13578;53.450;15.496;2024-03-25T06:48:11;76.05;;;24.58;;
25721;SDS011;13578;53.450;15.496;2024-03-25T06:51:12;94.40;;;25.90;;
25721;SDS011;13578;53.450;15.496;2024-03-25T06:54:12;73.63;;;24.33;;
25721;SDS011;13578;53.450;15.496;2024-03-25T06:57:13;73.07;;;25.17;;
25721;SDS011;13578;53.450;15.496;2024-03-25T07:00:13;67.03;;;24.55;;
25721;SDS011;13578;53.450;15.496;2024-03-25T07:03:18;74.80;;;23.85;;
25721;SDS011;13578;53.450;15.496;2024-03-25T07:06:20;65.65;;;24.70;;
25721;SDS011;13578;53.450;15.496;2024-03-25T07:09:20;60.92;;;23.40;;
25721;SDS011;13578;53.450;15.496;2024-03-25T07:12:21;79.25;;;23.98;;
25721;SDS011;13578;53.450;15.496;2024-03-25T07:15:22;70.10;;;25.30;;
25721;SDS011;13578;53.450;15.496;2024-03-25T07:18:22;67.88;;;22.90;;
25721;SDS011;13578;53.450;15.496;2024-03-25T07:21:23;61.45;;;22.83;;
25721;SDS011;13578;53.450;15.496;2024-03-25T07:24:24;64.18;;;22.77;;
25721;SDS011;13578;53.450;15.496;2024-03-25T07:27:24;65.47;;;21.55;;
25721;SDS011;13578;53.450;15.496;2024-03-25T07:30:25;59.42;;;22.92;;
25721;SDS011;13578;53.450;15.496;2024-03-25T07:33:28;50.55;;;22.33;;
25721;SDS011;13578;53.450;15.496;2024-03-25T07:36:29;61.63;;;23.65;;
25721;SDS011;13578;53.450;15.496;2024-03-25T07:39:33;62.22;;;24.08;;
25721;SDS011;13578;53.450;15.496;2024-03-25T07:42:34;64.53;;;22.77;;
25721;SDS011;13578;53.450;15.496;2024-03-25T07:45:35;55.85;;;21.58;;
25721;SDS011;13578;53.450;15.496;2024-03-25T07:48:35;59.90;;;24.30;;
25721;SDS011;13578;53.450;15.496;2024-03-25T07:51:36;48.63;;;21.35;;
25721;SDS011;13578;53.450;15.496;2024-03-25T07:54:39;48.53;;;19.88;;
25721;SDS011;13578;53.450;15.496;2024-03-25T07:57:40;41.08;;;20.65;;
25721;SDS011;13578;53.450;15.496;2024-03-25T08:00:40;48.50;;;20.45;;
25721;SDS011;13578;53.450;15.496;2024-03-25T08:03:41;46.80;;;19.73;;
25721;SDS011;13578;53.450;15.496;2024-03-25T08:06:42;44.65;;;21.30;;
25721;SDS011;13578;53.450;15.496;2024-03-25T08:09:42;44.75;;;19.35;;
25721;SDS011;13578;53.450;15.496;2024-03-25T08:12:43;33.20;;;16.55;;
25721;SDS011;13578;53.450;15.496;2024-03-25T08:15:44;41.40;;;18.38;;
25721;SDS011;13578;53.450;15.496;2024-03-25T08:18:44;33.55;;;17.05;;
25721;SDS011;13578;53.450;15.496;2024-03-25T08:21:45;35.45;;;18.35;;
25721;SDS011;13578;53.450;15.496;2024-03-25T08:24:45;37.97;;;16.27;;
25721;SDS011;13578;53.450;15.496;2024-03-25T08:27:46;29.45;;;16.40;;
25721;SDS011;13578;53.450;15.496;2024-03-25T08:30:46;25.90;;;15.60;;
25721;SDS011;13578;53.450;15.496;2024-03-25T08:33:47;28.67;;;15.00;;
25721;SDS011;13578;53.450;15.496;2024-03-25T08:36:48;20.30;;;13.23;;
25721;SDS011;13578;53.450;15.496;2024-03-25T08:39:48;25.58;;;13.20;;
25721;SDS011;13578;53.450;15.496;2024-03-25T08:42:49;21.20;;;13.45;;
25721;SDS011;13578;53.450;15.496;2024-03-25T08:45:49;25.90;;;13.65;;
25721;SDS011;13578;53.450;15.496;2024-03-25T08:48:50;25.35;;;13.18;;
25721;SDS011;13578;53.450;15.496;2024-03-25T08:51:51;19.55;;;11.77;;
25721;SDS011;13578;53.450;15.496;2024-03-25T08:54:51;21.73;;;12.63;;
25721;SDS011;13578;53.450;15.496;2024-03-25T08:57:52;23.98;;;13.48;;
25721;SDS011;13578;53.450;15.496;2024-03-25T09:00:52;27.80;;;13.38;;
25721;SDS011;13578;53.450;15.496;2024-03-25T09:03:53;22.48;;;14.75;;
25721;SDS011;13578;53.450;15.496;2024-03-25T09:06:54;22.50;;;13.77;;
25721;SDS011;13578;53.450;15.496;2024-03-25T09:09:54;18.98;;;10.35;;
25721;SDS011;13578;53.450;15.496;2024-03-25T09:13:13;16.77;;;11.40;;
25721;SDS011;13578;53.450;15.496;2024-03-25T09:16:14;20.60;;;10.60;;
25721;SDS011;13578;53.450;15.496;2024-03-25T09:19:14;18.35;;;11.20;;
25721;SDS011;13578;53.450;15.496;2024-03-25T09:22:15;16.10;;;10.18;;
25721;SDS011;13578;53.450;15.496;2024-03-25T09:25:16;17.30;;;10.13;;
25721;SDS011;13578;53.450;15.496;2024-03-25T09:28:17;18.42;;;11.05;;
25721;SDS011;13578;53.450;15.496;2024-03-25T09:31:18;22.42;;;11.95;;
25721;SDS011;13578;53.450;15.496;2024-03-25T09:34:18;14.90;;;9.40;;
25721;SDS011;13578;53.450;15.496;2024-03-25T09:37:19;19.55;;;10.45;;
25721;SDS011;13578;53.450;15.496;2024-03-25T09:40:19;21.63;;;11.70;;
25721;SDS011;13578;53.450;15.496;2024-03-25T09:43:33;13.55;;;8.32;;
25721;SDS011;13578;53.450;15.496;2024-03-25T09:46:43;20.92;;;11.10;;
25721;SDS011;13578;53.450;15.496;2024-03-25T09:49:44;16.00;;;8.63;;
25721;SDS011;13578;53.450;15.496;2024-03-25T09:52:49;11.90;;;7.57;;
25721;SDS011;13578;53.450;15.496;2024-03-25T09:55:50;9.70;;;7.32;;
25721;SDS011;13578;53.450;15.496;2024-03-25T09:58:51;9.05;;;6.65;;
25721;SDS011;13578;53.450;15.496;2024-03-25T10:01:53;9.98;;;6.78;;
25721;SDS011;13578;53.450;15.496;2024-03-25T10:04:54;11.48;;;7.00;;
25721;SDS011;13578;53.450;15.496;2024-03-25T10:07:55;12.75;;;6.47;;
25721;SDS011;13578;53.450;15.496;2024-03-25T10:10:56;23.73;;;8.85;;
25721;SDS011;13578;53.450;15.496;2024-03-25T10:13:58;9.98;;;6.80;;
25721;SDS011;13578;53.450;15.496;2024-03-25T10:16:58;8.48;;;6.45;;
25721;SDS011;13578;53.450;15.496;2024-03-25T10:19:59;7.97;;;5.53;;
25721;SDS011;13578;53.450;15.496;2024-03-25T10:22:59;8.50;;;5.80;;
25721;SDS011;13578;53.450;15.496;2024-03-25T10:26:00;7.32;;;5.32;;
25721;SDS011;13578;53.450;15.496;2024-03-25T10:29:01;7.38;;;5.28;;
25721;SDS011;13578;53.450;15.496;2024-03-25T10:32:04;8.25;;;5.68;;
25721;SDS011;13578;53.450;15.496;2024-03-25T10:35:05;6.85;;;5.20;;
25721;SDS011;13578;53.450;15.496;2024-03-25T10:38:07;11.70;;;6.10;;
25721;SDS011;13578;53.450;15.496;2024-03-25T10:41:10;8.63;;;5.60;;
25721;SDS011;13578;53.450;15.496;2024-03-25T10:44:16;4.85;;;4.30;;
25721;SDS011;13578;53.450;15.496;2024-03-25T10:47:19;9.20;;;5.07;;
25721;SDS011;13578;53.450;15.496;2024-03-25T10:50:23;8.20;;;5.32;;
25721;SDS011;13578;53.450;15.496;2024-03-25T10:53:28;7.50;;;5.65;;
25721;SDS011;13578;53.450;15.496;2024-03-25T10:56:30;7.28;;;5.32;;
25721;SDS011;13578;53.450;15.496;2024-03-25T10:59:31;6.18;;;4.75;;
25721;SDS011;13578;53.450;15.496;2024-03-25T11:02:32;6.20;;;4.75;;
25721;SDS011;13578;53.450;15.496;2024-03-25T11:05:33;7.65;;;4.15;;
25721;SDS011;13578;53.450;15.496;2024-03-25T11:08:33;4.68;;;4.03;;
25721;SDS011;13578;53.450;15.496;2024-03-25T11:11:34;6.32;;;4.63;;
25721;SDS011;13578;53.450;15.496;2024-03-25T11:14:35;6.75;;;4.40;;
25721;SDS011;13578;53.450;15.496;2024-03-25T11:17:36;5.78;;;3.97;;
25721;SDS011;13578;53.450;15.496;2024-03-25T11:20:37;3.47;;;3.17;;
25721;SDS011;13578;53.450;15.496;2024-03-25T11:23:41;4.45;;;3.38;;
25721;SDS011;13578;53.450;15.496;2024-03-25T11:26:42;3.85;;;3.47;;
25721;SDS011;13578;53.450;15.496;2024-03-25T11:29:43;4.47;;;3.22;;
25721;SDS011;13578;53.450;15.496;2024-03-25T11:32:44;5.43;;;3.80;;
25721;SDS011;13578;53.450;15.496;2024-03-25T11:35:54;3.92;;;3.10;;
25721;SDS011;13578;53.450;15.496;2024-03-25T11:38:59;3.55;;;3.03;;
25721;SDS011;13578;53.450;15.496;2024-03-25T11:42:01;5.13;;;3.13;;
25721;SDS011;13578;53.450;15.496;2024-03-25T11:45:02;2.75;;;2.50;;
25721;SDS011;13578;53.450;15.496;2024-03-25T11:48:04;5.85;;;3.53;;
25721;SDS011;13578;53.450;15.496;2024-03-25T11:51:05;4.78;;;3.42;;
25721;SDS011;13578;53.450;15.496;2024-03-25T11:54:05;6.70;;;3.42;;
25721;SDS011;13578;53.450;15.496;2024-03-25T11:57:06;5.13;;;4.07;;
25721;SDS011;13578;53.450;15.496;2024-03-25T12:00:08;4.93;;;4.05;;
25721;SDS011;13578;53.450;15.496;2024-03-25T12:03:13;9.85;;;6.50;;
25721;SDS011;13578;53.450;15.496;2024-03-25T12:06:15;5.57;;;4.78;;
25721;SDS011;13578;53.450;15.496;2024-03-25T12:09:16;7.32;;;4.85;;
25721;SDS011;13578;53.450;15.496;2024-03-25T12:12:35;6.82;;;5.88;;
25721;SDS011;13578;53.450;15.496;2024-03-25T12:15:39;5.50;;;4.95;;
25721;SDS011;13578;53.450;15.496;2024-03-25T12:18:40;5.25;;;4.30;;
25721;SDS011;13578;53.450;15.496;2024-03-25T12:21:41;5.45;;;3.80;;
25721;SDS011;13578;53.450;15.496;2024-03-25T12:24:42;4.85;;;3.80;;
25721;SDS011;13578;53.450;15.496;2024-03-25T12:27:48;3.60;;;3.05;;
25721;SDS011;13578;53.450;15.496;2024-03-25T12:30:50;4.25;;;3.30;;
25721;SDS011;13578;53.450;15.496;2024-03-25T12:33:52;3.25;;;2.80;;
25721;SDS011;13578;53.450;15.496;2024-03-25T12:37:02;4.65;;;3.78;;
25721;SDS011;13578;53.450;15.496;2024-03-25T12:40:05;3.50;;;2.80;;
25721;SDS011;13578;53.450;15.496;2024-03-25T12:43:07;3.92;;;3.10;;
25721;SDS011;13578;53.450;15.496;2024-03-25T12:46:08;3.47;;;3.17;;
25721;SDS011;13578;53.450;15.496;2024-03-25T12:49:09;3.35;;;3.03;;
25721;SDS011;13578;53.450;15.496;2024-03-25T12:52:10;2.70;;;2.50;;
25721;SDS011;13578;53.450;15.496;2024-03-25T12:55:11;3.38;;;2.70;;
25721;SDS011;13578;53.450;15.496;2024-03-25T12:58:11;3.22;;;2.78;;
25721;SDS011;13578;53.450;15.496;2024-03-25T13:01:12;3.05;;;2.47;;
25721;SDS011;13578;53.450;15.496;2024-03-25T13:04:13;2.53;;;2.30;;
25721;SDS011;13578;53.450;15.496;2024-03-25T13:07:13;2.50;;;2.30;;
25721;SDS011;13578;53.450;15.496;2024-03-25T13:10:14;2.33;;;2.13;;
25721;SDS011;13578;53.450;15.496;2024-03-25T13:13:15;2.92;;;2.42;;
25721;SDS011;13578;53.450;15.496;2024-03-25T13:16:16;4.10;;;2.25;;
25721;SDS011;13578;53.450;15.496;2024-03-25T13:19:17;2.78;;;2.35;;
25721;SDS011;13578;53.450;15.496;2024-03-25T13:22:17;3.88;;;2.17;;
25721;SDS011;13578;53.450;15.496;2024-03-25T13:25:18;2.38;;;2.17;;
25721;SDS011;13578;53.450;15.496;2024-03-25T13:28:19;4.20;;;2.40;;
25721;SDS011;13578;53.450;15.496;2024-03-25T13:31:19;2.60;;;2.35;;
25721;SDS011;13578;53.450;15.496;2024-03-25T13:34:20;3.45;;;1.90;;
25721;SDS011;13578;53.450;15.496;2024-03-25T13:37:21;3.42;;;3.03;;
25721;SDS011;13578;53.450;15.496;2024-03-25T13:40:21;3.92;;;2.67;;
25721;SDS011;13578;53.450;15.496;2024-03-25T13:43:22;3.90;;;2.60;;
25721;SDS011;13578;53.450;15.496;2024-03-25T13:46:23;4.18;;;2.50;;
25721;SDS011;13578;53.450;15.496;2024-03-25T13:49:23;3.42;;;2.78;;
25721;SDS011;13578;53.450;15.496;2024-03-25T13:52:24;2.55;;;2.35;;
25721;SDS011;13578;53.450;15.496;2024-03-25T13:55:25;5.22;;;3.00;;
25721;SDS011;13578;53.450;15.496;2024-03-25T13:58:26;3.47;;;3.10;;
25721;SDS011;13578;53.450;15.496;2024-03-25T14:01:27;8.95;;;3.33;;
25721;SDS011;13578;53.450;15.496;2024-03-25T14:04:27;2.88;;;2.60;;
25721;SDS011;13578;53.450;15.496;2024-03-25T14:07:28;3.30;;;2.70;;
25721;SDS011;13578;53.450;15.496;2024-03-25T14:10:29;2.67;;;2.20;;
25721;SDS011;13578;53.450;15.496;2024-03-25T14:13:30;1.90;;;1.80;;
25721;SDS011;13578;53.450;15.496;2024-03-25T14:16:31;2.50;;;2.15;;
25721;SDS011;13578;53.450;15.496;2024-03-25T14:19:31;2.63;;;2.42;;
25721;SDS011;13578;53.450;15.496;2024-03-25T14:22:32;2.58;;;2.38;;
25721;SDS011;13578;53.450;15.496;2024-03-25T14:25:33;3.10;;;2.80;;
25721;SDS011;13578;53.450;15.496;2024-03-25T14:28:33;5.50;;;3.72;;
25721;SDS011;13578;53.450;15.496;2024-03-25T14:31:34;3.45;;;3.15;;
25721;SDS011;13578;53.450;15.496;2024-03-25T14:34:35;6.90;;;4.05;;
25721;SDS011;13578;53.450;15.496;2024-03-25T14:37:35;13.63;;;3.63;;
25721;SDS011;13578;53.450;15.496;2024-03-25T14:40:39;5.97;;;4.25;;
25721;SDS011;13578;53.450;15.496;2024-03-25T14:43:39;5.60;;;4.18;;
25721;SDS011;13578;53.450;15.496;2024-03-25T14:46:40;5.80;;;3.47;;
25721;SDS011;13578;53.450;15.496;2024-03-25T14:49:41;4.25;;;3.47;;
25721;SDS011;13578;53.450;15.496;2024-03-25T14:52:41;3.53;;;3.15;;
25721;SDS011;13578;53.450;15.496;2024-03-25T14:55:44;3.90;;;3.30;;
25721;SDS011;13578;53.450;15.496;2024-03-25T14:58:44;4.72;;;3.47;;
25721;SDS011;13578;53.450;15.496;2024-03-25T15:01:45;3.50;;;3.20;;
25721;SDS011;13578;53.450;15.496;2024-03-25T15:04:46;5.00;;;4.10;;
25721;SDS011;13578;53.450;15.496;2024-03-25T15:07:46;6.03;;;4.78;;
25721;SDS011;13578;53.450;15.496;2024-03-25T15:10:47;4.93;;;3.80;;
25721;SDS011;13578;53.450;15.496;2024-03-25T15:13:48;5.00;;;4.10;;
25721;SDS011;13578;53.450;15.496;2024-03-25T15:16:51;4.20;;;3.80;;
25721;SDS011;13578;53.450;15.496;2024-03-25T15:19:51;4.40;;;2.97;;
25721;SDS011;13578;53.450;15.496;2024-03-25T15:22:52;3.28;;;2.95;;
25721;SDS011;13578;53.450;15.496;2024-03-25T15:25:52;3.83;;;3.40;;
25721;SDS011;13578;53.450;15.496;2024-03-25T15:28:53;3.55;;;3.28;;
25721;SDS011;13578;53.450;15.496;2024-03-25T15:31:54;3.95;;;3.55;;
25721;SDS011;13578;53.450;15.496;2024-03-25T15:34:54;3.10;;;2.90;;
25721;SDS011;13578;53.450;15.496;2024-03-25T15:37:55;3.85;;;2.78;;
25721;SDS011;13578;53.450;15.496;2024-03-25T15:40:56;3.55;;;3.20;;
25721;SDS011;13578;53.450;15.496;2024-03-25T15:43:57;5.63;;;4.43;;
25721;SDS011;13578;53.450;15.496;2024-03-25T15:46:57;5.38;;;4.20;;
25721;SDS011;13578;53.450;15.496;2024-03-25T15:49:58;5.30;;;4.07;;
25721;SDS011;13578;53.450;15.496;2024-03-25T15:52:58;4.80;;;4.18;;
25721;SDS011;13578;53.450;15.496;2024-03-25T15:55:59;4.43;;;4.00;;
25721;SDS011;13578;53.450;15.496;2024-03-25T15:59:01;7.20;;;4.45;;
25721;SDS011;13578;53.450;15.496;2024-03-25T16:02:02;5.40;;;4.50;;
25721;SDS011;13578;53.450;15.496;2024-03-25T16:05:03;5.45;;;4.57;;
25721;SDS011;13578;53.450;15.496;2024-03-25T16:08:04;5.38;;;3.90;;
25721;SDS011;13578;53.450;15.496;2024-03-25T16:11:05;5.45;;;4.72;;
25721;SDS011;13578;53.450;15.496;2024-03-25T16:14:05;5.38;;;4.88;;
25721;SDS011;13578;53.450;15.496;2024-03-25T16:17:06;5.88;;;5.13;;
25721;SDS011;13578;53.450;15.496;2024-03-25T16:20:07;5.13;;;4.55;;
25721;SDS011;13578;53.450;15.496;2024-03-25T16:23:08;6.68;;;5.22;;
25721;SDS011;13578;53.450;15.496;2024-03-25T16:26:09;7.78;;;6.30;;
25721;SDS011;13578;53.450;15.496;2024-03-25T16:29:10;8.52;;;5.85;;
25721;SDS011;13578;53.450;15.496;2024-03-25T16:32:11;9.75;;;7.70;;
25721;SDS011;13578;53.450;15.496;2024-03-25T16:35:11;9.02;;;6.00;;
25721;SDS011;13578;53.450;15.496;2024-03-25T16:38:12;6.68;;;5.85;;
25721;SDS011;13578;53.450;15.496;2024-03-25T16:41:13;7.93;;;5.70;;
25721;SDS011;13578;53.450;15.496;2024-03-25T16:44:14;9.77;;;5.97;;
25721;SDS011;13578;53.450;15.496;2024-03-25T16:47:14;7.03;;;5.30;;
25721;SDS011;13578;53.450;15.496;2024-03-25T16:50:15;7.32;;;6.35;;
25721;SDS011;13578;53.450;15.496;2024-03-25T16:53:16;7.10;;;5.78;;
25721;SDS011;13578;53.450;15.496;2024-03-25T16:56:17;8.45;;;5.40;;
25721;SDS011;13578;53.450;15.496;2024-03-25T16:59:17;6.90;;;5.18;;
25721;SDS011;13578;53.450;15.496;2024-03-25T17:02:18;9.35;;;4.72;;
25721;SDS011;13578;53.450;15.496;2024-03-25T17:05:19;9.00;;;5.13;;
25721;SDS011;13578;53.450;15.496;2024-03-25T17:08:20;8.02;;;4.82;;
25721;SDS011;13578;53.450;15.496;2024-03-25T17:11:20;5.93;;;5.00;;
25721;SDS011;13578;53.450;15.496;2024-03-25T17:14:22;4.75;;;4.25;;
25721;SDS011;13578;53.450;15.496;2024-03-25T17:17:22;6.60;;;4.03;;
25721;SDS011;13578;53.450;15.496;2024-03-25T17:20:23;4.75;;;4.32;;
25721;SDS011;13578;53.450;15.496;2024-03-25T17:23:24;6.28;;;4.70;;
25721;SDS011;13578;53.450;15.496;2024-03-25T17:26:25;8.32;;;6.55;;
25721;SDS011;13578;53.450;15.496;2024-03-25T17:29:25;7.25;;;5.63;;
25721;SDS011;13578;53.450;15.496;2024-03-25T17:32:26;7.78;;;5.13;;
25721;SDS011;13578;53.450;15.496;2024-03-25T17:35:27;10.02;;;5.95;;
25721;SDS011;13578;53.450;15.496;2024-03-25T17:38:27;6.93;;;5.40;;
25721;SDS011;13578;53.450;15.496;2024-03-25T17:41:28;9.02;;;5.30;;
25721;SDS011;13578;53.450;15.496;2024-03-25T17:44:30;8.70;;;5.40;;
25721;SDS011;13578;53.450;15.496;2024-03-25T17:47:35;8.30;;;5.27;;